createdAt,value
2017-02-06T00:09:39.402Z,3
2017-02-06T00:19:53.633Z,2.8
2017-02-06T00:30:07.051Z,2.7
2017-02-06T00:40:21.394Z,3
2017-02-06T00:50:35.573Z,2.9
2017-02-06T01:00:48.679Z,2.9
2017-02-06T01:11:01.696Z,2.7
2017-02-06T01:21:16.518Z,2.5
2017-02-06T01:31:30.647Z,2
2017-02-06T01:41:44.491Z,2.1
2017-02-06T01:51:58.401Z,1.9
2017-02-06T02:02:12.991Z,1.8
2017-02-06T02:12:27.905Z,2.1
2017-02-06T02:22:42.414Z,2.2
2017-02-06T02:32:55.898Z,2.3
2017-02-06T02:43:09.498Z,2.4
2017-02-06T02:53:23.425Z,2.5
2017-02-06T03:03:37.030Z,2.5
2017-02-06T03:13:51.540Z,2.6
2017-02-06T03:24:05.112Z,2.6
2017-02-06T03:34:19.879Z,2.5
2017-02-06T03:44:33.169Z,2.2
2017-02-06T03:54:47.426Z,2.4
2017-02-06T04:05:01.860Z,2.4
2017-02-06T04:15:15.465Z,2.5
2017-02-06T04:25:29.269Z,2.4
2017-02-06T04:35:43.256Z,2.7
2017-02-06T04:45:56.991Z,2.6
2017-02-06T04:56:10.049Z,2.6
2017-02-06T05:06:24.437Z,2.8
2017-02-06T05:16:39.456Z,2.6
2017-02-06T05:26:52.938Z,2.6
2017-02-06T05:37:06.609Z,2.6
2017-02-06T05:47:20.680Z,2.5
2017-02-06T05:57:34.313Z,2
2017-02-06T06:07:48.063Z,1.9
2017-02-06T06:18:02.282Z,1.9
2017-02-06T06:28:17.292Z,2.2
2017-02-06T06:38:31.536Z,2.6
2017-02-06T06:48:44.871Z,2.7
2017-02-06T06:58:59.247Z,2.8
2017-02-06T07:09:13.631Z,2.9
2017-02-06T07:29:42.036Z,3
2017-02-06T07:39:57.268Z,3.1
2017-02-06T07:50:12.100Z,3.2
2017-02-06T08:00:26.404Z,3.2
2017-02-06T08:10:39.959Z,3.4
2017-02-06T08:20:53.228Z,3.5
2017-02-06T08:31:07.358Z,3.7
2017-02-06T08:41:20.984Z,3.9
2017-02-06T08:51:35.753Z,4
2017-02-06T09:01:49.949Z,4.2
2017-02-06T09:12:03.774Z,4.2
2017-02-06T09:22:17.647Z,4.2
2017-02-06T09:32:32.618Z,4.1
2017-02-06T09:42:47.347Z,4.5
2017-02-06T09:53:02.530Z,4.5
2017-02-06T10:03:16.103Z,4.3
2017-02-06T10:13:31.065Z,4.5
2017-02-06T10:23:44.475Z,4.6
2017-02-06T10:33:59.474Z,4.6
2017-02-06T10:44:13.470Z,4.9
2017-02-06T10:54:26.678Z,5.1
2017-02-06T11:04:40.213Z,5.1
2017-02-06T11:14:53.869Z,4.8
2017-02-06T11:25:08.459Z,4.5
2017-02-06T11:35:22.197Z,4.8
2017-02-06T11:45:37.225Z,4.9
2017-02-06T11:55:50.695Z,5.1
2017-02-06T12:06:04.626Z,5
2017-02-06T12:16:18.235Z,5
2017-02-06T12:26:32.750Z,5.1
2017-02-06T12:36:46.957Z,5
2017-02-06T12:47:01.214Z,4.9
2017-02-06T12:57:16.148Z,4.7
2017-02-06T13:07:30.300Z,4.9
2017-02-06T13:17:44.828Z,5
2017-02-06T13:27:59.495Z,4.8
2017-02-06T13:38:13.017Z,4.7
2017-02-06T13:48:26.095Z,4.8
2017-02-06T13:58:40.848Z,4.7
2017-02-06T14:08:54.650Z,4.7
2017-02-06T14:19:08.998Z,4.7
2017-02-06T14:29:23.927Z,4.5
2017-02-06T14:39:39.078Z,4.6
2017-02-06T14:49:53.249Z,4.8
2017-02-06T15:00:07.355Z,4.7
2017-02-06T15:10:21.000Z,4.7
2017-02-06T15:20:35.248Z,4.7
2017-02-06T15:30:49.856Z,4.6
2017-02-06T15:41:04.428Z,4.5
2017-02-06T15:51:17.550Z,4.3
2017-02-06T16:01:32.250Z,3.9
2017-02-06T16:11:47.271Z,4.5
2017-02-06T16:22:01.172Z,4.6
2017-02-06T16:32:16.017Z,4.7
2017-02-06T16:42:30.509Z,4.6
2017-02-06T16:52:44.399Z,4.5
2017-02-06T17:02:57.706Z,4.5
2017-02-06T17:13:12.226Z,4.6
2017-02-06T17:23:27.122Z,4.5
2017-02-06T17:33:40.968Z,4.4
2017-02-06T17:43:54.172Z,4.4
2017-02-06T17:54:07.823Z,4.4
2017-02-06T18:04:21.516Z,4.2
2017-02-06T18:14:34.870Z,4.1
2017-02-06T18:24:48.780Z,4
2017-02-06T18:35:02.916Z,4
2017-02-06T18:45:17.122Z,4.1
2017-02-06T18:55:29.783Z,3.9
2017-02-06T19:05:43.941Z,3.8
2017-02-06T19:15:58.418Z,3.8
2017-02-06T19:26:10.989Z,3.8
2017-02-06T19:36:25.543Z,3.7
2017-02-06T19:46:39.563Z,3.8
2017-02-06T19:56:53.605Z,3.6
2017-02-06T20:07:07.678Z,3.6
2017-02-06T20:17:22.513Z,3.6
2017-02-06T20:27:37.299Z,3.7
2017-02-06T20:37:52.227Z,3.5
2017-02-06T20:48:07.308Z,3.5
2017-02-06T20:58:20.821Z,3.5
2017-02-06T21:08:34.720Z,3.4
2017-02-06T21:18:49.135Z,3.5
2017-02-06T21:29:03.602Z,3.4
2017-02-06T21:39:17.520Z,3.3
2017-02-06T21:49:32.059Z,3.2
2017-02-06T21:59:46.183Z,3.1
2017-02-06T22:09:59.408Z,3.2
2017-02-06T22:20:13.863Z,3.1
2017-02-06T22:30:27.733Z,2.9
2017-02-06T22:40:41.443Z,2.8
2017-02-06T22:50:55.292Z,2.9
2017-02-06T23:01:09.685Z,2.9
2017-02-06T23:11:23.328Z,2.9
2017-02-06T23:21:37.382Z,2.8
2017-02-06T23:31:52.319Z,2.6
2017-02-06T23:42:06.324Z,2.6
2017-02-06T23:52:20.344Z,2.4
